Topeka, Kansas
Current Conditions -  °F | °C
As of 12:53 PM on Monday 20 Oct 2014 (Local Time) from KTOP Reporting Station
Clear Clear  
Wind Chill: 71°   Ceiling: Unl
Heat Index: 71°   Visibility: 10mi
Dew Point: 53°   Wind: 5mph
Humidity: 53%   Direction: 360°N
Pressure: 30.07"   Gusts: NA
Location:  39.06°N, 95.68°W
Report Text: KTOP 201753Z 36004KT 10SM CLR 22/12 A3007 RMK AO2 SLP179 T02170117 10222 20072 58002
Loading
Personal Weather Stations






























Interactive Weather Map New forecast layout! Learn more

10-Day Weather Forecast

Advertisements
Track Severe Weather on mobile